Cobham, Virginia
Current Conditions -  °F | °C
As of 7:15 AM on Monday 24 Nov 2014 (Local Time) from KGVE Reporting Station
Scattered Clouds Scattered Clouds  
Wind Chill: 59°   Ceiling: Unl
Heat Index: 59°   Visibility: 10mi
Dew Point: 56°   Wind: 16mph
Humidity: 88%   Direction: 210°SSW
Pressure: 29.68"   Gusts: 22mph
Location:  38.06°N, 78.27°W
Report Text: KGVE 241215Z AUTO 21014G19KT 10SM SCT029 15/13 A2968 RMK AO1 T01520132
Loading
Personal Weather Stations






























Interactive Weather Map New forecast layout! Learn more

10-Day Weather Forecast

Advertisements
Track Severe Weather on mobile